createdAt,value
2023-03-05T00:01:27.911Z,63.31
2023-03-05T00:04:01.227Z,63.27
2023-03-05T00:06:35.307Z,63.43
2023-03-05T00:09:08.661Z,63.37
2023-03-05T00:11:41.762Z,62.97
2023-03-05T00:14:15.223Z,63.25
2023-03-05T00:16:48.688Z,63.37
2023-03-05T00:19:21.981Z,63.29
2023-03-05T00:21:54.762Z,63.49
2023-03-05T00:24:27.524Z,63.38
2023-03-05T00:27:00.020Z,63.30
2023-03-05T00:29:32.869Z,63.27
2023-03-05T00:32:05.454Z,63.59
2023-03-05T00:34:38.385Z,64.20
2023-03-05T00:37:11.005Z,64.09
2023-03-05T00:39:43.800Z,63.83
2023-03-05T00:42:16.682Z,63.69
2023-03-05T00:44:49.504Z,63.64
2023-03-05T00:47:22.318Z,63.70
2023-03-05T00:49:54.921Z,64.00
2023-03-05T00:52:27.618Z,63.80
2023-03-05T00:55:00.382Z,64.06
2023-03-05T00:57:33.308Z,64.01
2023-03-05T01:00:06.506Z,63.86
2023-03-05T01:02:39.250Z,63.87
2023-03-05T01:05:15.616Z,63.94
2023-03-05T01:07:48.148Z,63.93
2023-03-05T01:10:20.566Z,64.10
2023-03-05T01:12:53.319Z,64.12
2023-03-05T01:15:26.712Z,63.96
2023-03-05T01:17:59.069Z,63.92
2023-03-05T01:20:32.643Z,64.06
2023-03-05T01:23:06.141Z,63.86
2023-03-05T01:25:39.011Z,63.94
2023-03-05T01:28:11.913Z,64.07
2023-03-05T01:30:44.840Z,63.92
2023-03-05T01:33:17.595Z,64.11
2023-03-05T01:35:51.209Z,64.27
2023-03-05T01:38:24.080Z,64.27
2023-03-05T01:40:56.881Z,64.21
2023-03-05T01:43:32.435Z,64.04
2023-03-05T01:46:25.961Z,64.15
2023-03-05T01:49:11.294Z,64.14
2023-03-05T01:52:09.566Z,64.07
2023-03-05T01:54:45.773Z,64.22
2023-03-05T01:57:39.518Z,64.27
2023-03-05T02:00:14.639Z,64.30
2023-03-05T02:02:50.720Z,64.20
2023-03-05T02:05:33.713Z,64.13
2023-03-05T02:08:09.425Z,64.17
2023-03-05T02:10:50.462Z,64.18
2023-03-05T02:13:31.622Z,64.13
2023-03-05T02:16:05.472Z,64.17
2023-03-05T02:18:38.844Z,64.14
2023-03-05T02:21:13.282Z,63.97
2023-03-05T02:23:47.019Z,63.93
2023-03-05T02:26:20.117Z,64.01
2023-03-05T02:28:59.294Z,64.00
2023-03-05T02:31:32.292Z,63.83
2023-03-05T02:34:07.020Z,63.86
2023-03-05T02:36:40.083Z,63.88
2023-03-05T02:39:13.586Z,63.82
2023-03-05T02:41:46.611Z,63.97
2023-03-05T02:44:19.746Z,64.07
2023-03-05T02:46:53.788Z,64.18
2023-03-05T02:49:27.110Z,64.21
2023-03-05T02:52:00.245Z,64.16
2023-03-05T02:54:33.295Z,64.29
2023-03-05T02:57:06.643Z,64.40
2023-03-05T02:59:39.654Z,64.27
2023-03-05T03:02:12.571Z,64.22
2023-03-05T03:04:45.812Z,64.27
2023-03-05T03:07:18.898Z,64.33
2023-03-05T03:09:51.944Z,64.36
2023-03-05T03:12:24.879Z,64.41
2023-03-05T03:14:58.151Z,64.36
2023-03-05T03:17:31.129Z,64.42
2023-03-05T03:20:04.666Z,64.38
2023-03-05T03:22:37.615Z,64.69
2023-03-05T03:25:11.421Z,64.80
2023-03-05T03:27:44.033Z,64.52
2023-03-05T03:30:19.145Z,64.78
2023-03-05T03:32:54.200Z,65.92
2023-03-05T03:35:27.411Z,65.96
2023-03-05T03:38:00.666Z,65.47
2023-03-05T03:40:34.080Z,65.15
2023-03-05T03:43:07.652Z,65.20
2023-03-05T03:45:44.462Z,65.11
2023-03-05T03:48:17.782Z,65.04
2023-03-05T03:50:50.773Z,65.07
2023-03-05T03:53:24.096Z,65.13
2023-03-05T03:56:01.825Z,65.08
2023-03-05T03:58:34.962Z,65.11
2023-03-05T04:01:08.506Z,66.00
2023-03-05T04:03:41.807Z,65.55
2023-03-05T04:06:15.410Z,65.26
2023-03-05T04:08:48.122Z,65.88
2023-03-05T04:11:21.740Z,66.04
2023-03-05T04:13:54.733Z,65.38
2023-03-05T04:16:27.784Z,65.54
2023-03-05T04:19:01.186Z,65.66
2023-03-05T04:21:34.475Z,65.56
2023-03-05T04:24:08.833Z,65.84
2023-03-05T04:26:41.857Z,65.52
2023-03-05T04:29:15.252Z,65.63
2023-03-05T04:31:48.606Z,65.75
2023-03-05T04:34:21.471Z,65.79
2023-03-05T04:36:54.387Z,65.99
2023-03-05T04:39:27.060Z,66.01
2023-03-05T04:42:00.417Z,67.52
2023-03-05T04:44:33.390Z,66.87
2023-03-05T04:47:06.637Z,66.49
2023-03-05T04:49:39.937Z,66.39
2023-03-05T04:52:15.061Z,66.16
2023-03-05T04:54:48.569Z,66.05
2023-03-05T04:57:23.163Z,66.02
2023-03-05T04:59:57.129Z,66.05
2023-03-05T05:02:30.658Z,65.92
2023-03-05T05:05:04.094Z,65.64
2023-03-05T05:07:37.602Z,65.63
2023-03-05T05:10:11.655Z,65.94
2023-03-05T05:12:46.005Z,65.66
2023-03-05T05:15:18.850Z,66.21
2023-03-05T05:17:53.033Z,65.73
2023-03-05T05:20:26.341Z,65.89
2023-03-05T05:22:59.420Z,66.35
2023-03-05T05:25:32.389Z,66.07
2023-03-05T05:28:05.501Z,65.72
2023-03-05T05:30:39.516Z,65.86
2023-03-05T05:33:12.919Z,65.90
2023-03-05T05:35:45.946Z,65.70
2023-03-05T05:38:19.821Z,65.63
2023-03-05T05:40:53.036Z,66.99
2023-03-05T05:43:26.053Z,66.84
2023-03-05T05:46:02.962Z,66.45
2023-03-05T05:48:38.006Z,67.03
2023-03-05T05:51:13.764Z,66.60
2023-03-05T05:53:47.571Z,66.38
2023-03-05T05:56:21.205Z,66.01
2023-03-05T05:58:54.594Z,65.95
2023-03-05T06:01:33.553Z,66.05
2023-03-05T06:04:06.645Z,66.06
2023-03-05T06:06:39.591Z,65.83
2023-03-05T06:09:12.577Z,65.66
2023-03-05T06:11:45.756Z,65.52
2023-03-05T06:14:18.644Z,65.26
2023-03-05T06:16:51.449Z,64.65
2023-03-05T06:19:26.245Z,64.29
2023-03-05T06:22:00.096Z,64.32
2023-03-05T06:24:33.009Z,64.28
2023-03-05T06:27:07.305Z,64.18
2023-03-05T06:29:40.152Z,64.21
2023-03-05T06:32:12.751Z,63.93
2023-03-05T06:34:46.293Z,63.30
2023-03-05T06:37:19.544Z,63.42
2023-03-05T06:39:52.635Z,63.31
2023-03-05T06:42:25.574Z,62.94
2023-03-05T06:44:58.833Z,62.48
2023-03-05T06:47:33.588Z,62.29
2023-03-05T06:50:06.850Z,62.20
2023-03-05T06:52:41.682Z,62.06
2023-03-05T06:55:14.915Z,61.82
2023-03-05T06:57:49.150Z,61.71
2023-03-05T07:00:23.560Z,61.68
2023-03-05T07:02:57.855Z,61.42
2023-03-05T07:05:33.182Z,61.28
2023-03-05T07:08:07.082Z,61.25
2023-03-05T07:10:44.827Z,60.89
2023-03-05T07:13:18.408Z,60.49
2023-03-05T07:15:52.616Z,60.40
2023-03-05T07:18:26.578Z,59.96
2023-03-05T07:21:11.746Z,59.93
2023-03-05T07:23:45.106Z,59.83
2023-03-05T07:26:19.786Z,58.88
2023-03-05T07:28:53.376Z,58.40
2023-03-05T07:31:32.523Z,58.70
2023-03-05T07:34:07.045Z,58.55
2023-03-05T07:36:41.290Z,58.54
2023-03-05T07:39:15.343Z,58.44
2023-03-05T07:41:51.629Z,58.58
2023-03-05T07:44:34.234Z,58.07
2023-03-05T07:47:08.008Z,57.99
2023-03-05T07:49:42.295Z,57.72
2023-03-05T07:52:16.252Z,57.25
2023-03-05T07:54:50.218Z,56.41
2023-03-05T07:57:24.184Z,55.29
2023-03-05T07:59:57.880Z,55.03
2023-03-05T08:02:32.080Z,54.98
2023-03-05T08:05:06.100Z,54.81
2023-03-05T08:07:40.394Z,55.07
2023-03-05T08:10:14.408Z,48.50
2023-03-05T08:12:48.312Z,47.63
2023-03-05T08:15:21.941Z,47.02
2023-03-05T08:17:55.596Z,47.23
2023-03-05T08:20:29.378Z,44.39
2023-03-05T08:23:04.064Z,46.51
2023-03-05T08:25:38.406Z,46.95
2023-03-05T08:28:11.814Z,46.09
2023-03-05T08:30:44.929Z,44.20
2023-03-05T08:33:19.007Z,44.09
2023-03-05T08:35:52.333Z,44.40
2023-03-05T08:38:26.594Z,47.15
2023-03-05T08:41:00.047Z,47.07
2023-03-05T08:43:34.295Z,45.35
2023-03-05T08:46:08.730Z,43.92
2023-03-05T08:48:42.834Z,44.00
2023-03-05T08:51:26.413Z,42.62
2023-03-05T08:54:03.308Z,43.47
2023-03-05T08:56:37.445Z,42.90
2023-03-05T08:59:13.597Z,42.21
2023-03-05T09:01:47.361Z,43.26
2023-03-05T09:04:20.445Z,43.64
2023-03-05T09:06:54.250Z,44.92
2023-03-05T09:09:30.633Z,45.21
2023-03-05T09:12:05.247Z,45.01
2023-03-05T09:14:38.792Z,43.64
2023-03-05T09:17:12.203Z,44.86
2023-03-05T09:19:49.905Z,45.51
2023-03-05T09:22:22.879Z,43.43
2023-03-05T09:24:56.482Z,42.23
2023-03-05T09:27:29.486Z,44.47
2023-03-05T09:30:02.758Z,44.88
2023-03-05T09:32:36.398Z,43.16
2023-03-05T09:35:10.597Z,41.68
2023-03-05T09:37:43.837Z,42.24
2023-03-05T09:40:20.405Z,43.04
2023-03-05T09:43:05.609Z,43.40
2023-03-05T09:45:49.569Z,42.34
2023-03-05T09:48:54.978Z,42.27
2023-03-05T09:51:40.965Z,41.45
2023-03-05T09:54:25.543Z,42.95
2023-03-05T09:57:02.330Z,41.91
2023-03-05T09:59:56.792Z,40.90
2023-03-05T10:02:43.048Z,40.41
2023-03-05T10:05:28.610Z,39.93
2023-03-05T10:08:07.610Z,40.90
2023-03-05T10:10:46.641Z,40.96
2023-03-05T10:13:40.727Z,38.47
2023-03-05T10:16:31.569Z,39.67
2023-03-05T10:19:13.781Z,40.99
2023-03-05T10:21:52.898Z,40.56
2023-03-05T10:24:54.359Z,41.31
2023-03-05T10:27:49.143Z,41.91
2023-03-05T10:31:00.185Z,38.87
2023-03-05T10:34:07.025Z,37.35
2023-03-05T10:36:47.222Z,37.68
2023-03-05T10:39:38.185Z,38.47
2023-03-05T10:42:44.172Z,39.39
2023-03-05T10:45:19.104Z,39.42
2023-03-05T10:47:58.728Z,39.04
2023-03-05T10:50:38.747Z,40.11
2023-03-05T10:53:11.973Z,38.03
2023-03-05T10:55:46.214Z,36.84
2023-03-05T10:58:23.079Z,35.78
2023-03-05T11:01:24.347Z,37.27
2023-03-05T11:04:04.475Z,37.83
2023-03-05T11:06:39.765Z,35.02
2023-03-05T11:09:33.241Z,35.93
2023-03-05T11:12:12.284Z,36.34
2023-03-05T11:14:49.514Z,37.77
2023-03-05T11:17:44.010Z,38.59
2023-03-05T11:20:35.986Z,39.03
2023-03-05T11:23:26.185Z,38.62
2023-03-05T11:26:15.025Z,38.41
2023-03-05T11:28:59.171Z,38.59
2023-03-05T11:31:34.748Z,39.48
2023-03-05T11:34:27.098Z,38.78
2023-03-05T11:37:04.652Z,38.58
2023-03-05T11:39:40.774Z,38.42
2023-03-05T11:42:26.353Z,38.33
2023-03-05T11:45:00.871Z,39.10
2023-03-05T11:47:51.011Z,38.68
2023-03-05T11:50:32.559Z,37.97
2023-03-05T11:53:15.379Z,39.44
2023-03-05T11:55:54.931Z,39.66
2023-03-05T11:59:17.125Z,39.07
2023-03-05T12:01:58.346Z,38.13
2023-03-05T12:04:32.747Z,38.92
2023-03-05T12:07:06.302Z,39.74
2023-03-05T12:09:50.657Z,39.55
2023-03-05T12:12:36.540Z,39.67
2023-03-05T12:15:18.622Z,40.16
2023-03-05T12:18:10.950Z,40.55
2023-03-05T12:21:09.414Z,41.10
2023-03-05T12:24:03.922Z,40.41
2023-03-05T12:27:03.231Z,40.13
2023-03-05T12:29:54.861Z,40.31
2023-03-05T12:32:30.000Z,40.62
2023-03-05T12:35:07.102Z,41.21
2023-03-05T12:37:51.906Z,41.38
2023-03-05T12:40:27.177Z,40.90
2023-03-05T12:43:02.782Z,41.00
2023-03-05T12:45:42.079Z,41.55
2023-03-05T12:48:14.657Z,41.58
2023-03-05T12:50:47.440Z,41.66
2023-03-05T12:53:22.351Z,41.27
2023-03-05T12:56:04.617Z,41.31
2023-03-05T12:58:36.173Z,41.32
2023-03-05T13:01:36.391Z,40.88
2023-03-05T13:04:17.318Z,40.07
2023-03-05T13:07:00.626Z,40.63
2023-03-05T13:09:36.987Z,40.89
2023-03-05T13:12:15.586Z,39.84
2023-03-05T13:14:58.412Z,39.64
2023-03-05T13:17:42.211Z,39.39
2023-03-05T13:20:41.189Z,38.44
2023-03-05T13:23:27.598Z,39.18
2023-03-05T13:26:19.054Z,38.45
2023-03-05T13:29:18.132Z,38.97
2023-03-05T13:32:26.986Z,38.73
2023-03-05T13:35:02.359Z,40.33
2023-03-05T13:37:38.826Z,40.46
2023-03-05T13:40:28.993Z,40.09
2023-03-05T13:43:21.116Z,39.40
2023-03-05T13:46:01.884Z,40.13
2023-03-05T13:48:35.418Z,40.17
2023-03-05T13:51:10.283Z,40.33
2023-03-05T13:53:43.346Z,39.72
2023-03-05T13:56:21.668Z,40.02
2023-03-05T13:58:57.594Z,40.57
2023-03-05T14:01:56.817Z,39.32
2023-03-05T14:04:39.522Z,40.01
2023-03-05T14:07:32.155Z,40.42
2023-03-05T14:10:06.359Z,38.64
2023-03-05T14:12:43.050Z,38.83
2023-03-05T14:15:29.942Z,39.04
2023-03-05T14:18:31.960Z,40.12
2023-03-05T14:21:06.456Z,40.10
2023-03-05T14:23:46.399Z,39.59
2023-03-05T14:26:30.610Z,39.80
2023-03-05T14:29:18.344Z,40.49
2023-03-05T14:32:05.419Z,40.60
2023-03-05T14:34:44.928Z,40.87
2023-03-05T14:37:27.363Z,41.32
2023-03-05T14:40:13.859Z,41.22
2023-03-05T14:43:04.868Z,41.53
2023-03-05T14:45:44.019Z,41.94
2023-03-05T14:48:19.775Z,41.65
2023-03-05T14:50:57.317Z,41.79
2023-03-05T14:53:40.713Z,41.13
2023-03-05T14:56:25.575Z,41.23
2023-03-05T14:59:01.918Z,40.98
2023-03-05T15:01:35.059Z,41.42
2023-03-05T15:04:08.406Z,41.23
2023-03-05T15:06:47.440Z,41.31
2023-03-05T15:09:21.493Z,41.43
2023-03-05T15:11:54.952Z,41.50
2023-03-05T15:14:28.137Z,41.49
2023-03-05T15:17:01.936Z,42.14
2023-03-05T15:19:34.813Z,41.60
2023-03-05T15:22:07.549Z,41.06
2023-03-05T15:24:40.775Z,41.03
2023-03-05T15:27:15.366Z,41.34
2023-03-05T15:29:48.813Z,41.04
2023-03-05T15:32:22.055Z,40.96
2023-03-05T15:34:55.348Z,41.42
2023-03-05T15:37:28.970Z,41.27
2023-03-05T15:40:02.502Z,41.21
2023-03-05T15:42:35.830Z,41.18
2023-03-05T15:45:09.703Z,41.75
2023-03-05T15:47:42.816Z,41.95
2023-03-05T15:50:16.244Z,42.00
2023-03-05T15:52:49.746Z,42.07
2023-03-05T15:55:23.398Z,42.09
2023-03-05T15:57:57.388Z,42.40
2023-03-05T16:00:33.519Z,42.45
2023-03-05T16:03:07.349Z,42.47
2023-03-05T16:05:41.327Z,42.41
2023-03-05T16:08:14.634Z,42.86
2023-03-05T16:10:49.643Z,42.68
2023-03-05T16:13:22.991Z,42.85
2023-03-05T16:15:56.144Z,43.04
2023-03-05T16:18:30.073Z,43.20
2023-03-05T16:21:04.199Z,43.45
2023-03-05T16:23:37.477Z,43.81
2023-03-05T16:26:11.963Z,44.16
2023-03-05T16:28:44.942Z,44.29
2023-03-05T16:31:18.394Z,44.60
2023-03-05T16:33:51.754Z,44.72
2023-03-05T16:36:27.785Z,44.61
2023-03-05T16:39:01.961Z,44.48
2023-03-05T16:41:35.648Z,44.98
2023-03-05T16:44:09.801Z,45.46
2023-03-05T16:46:44.592Z,45.34
2023-03-05T16:49:18.373Z,45.08
2023-03-05T16:51:51.915Z,45.18
2023-03-05T16:54:24.900Z,44.84
2023-03-05T16:59:33.452Z,45.22
2023-03-05T17:02:08.096Z,45.57
2023-03-05T17:04:41.285Z,45.49
2023-03-05T17:07:17.495Z,45.27
2023-03-05T17:09:51.000Z,45.10
2023-03-05T17:12:24.967Z,45.10
2023-03-05T17:14:58.286Z,45.11
2023-03-05T17:17:33.089Z,45.13
2023-03-05T17:20:06.379Z,45.06
2023-03-05T17:22:40.326Z,44.98
2023-03-05T17:25:13.629Z,45.14
2023-03-05T17:27:47.857Z,45.23
2023-03-05T17:30:20.917Z,45.09
2023-03-05T17:32:56.064Z,44.96
2023-03-05T17:35:29.908Z,45.01
2023-03-05T17:38:04.275Z,45.09
2023-03-05T17:40:37.978Z,45.22
2023-03-05T17:43:11.205Z,45.21
2023-03-05T17:45:45.287Z,45.26
2023-03-05T17:48:19.474Z,45.34
2023-03-05T17:50:53.377Z,45.36
2023-03-05T17:53:26.604Z,45.40
2023-03-05T17:55:59.773Z,45.42
2023-03-05T17:58:32.812Z,45.57
2023-03-05T18:01:07.012Z,45.60
2023-03-05T18:03:41.192Z,45.60
2023-03-05T18:06:14.260Z,45.51
2023-03-05T18:08:47.117Z,45.55
2023-03-05T18:11:21.971Z,45.66
2023-03-05T18:13:55.161Z,45.78
2023-03-05T18:16:28.092Z,45.64
2023-03-05T18:19:01.251Z,45.51
2023-03-05T18:21:34.203Z,45.43
2023-03-05T18:24:07.590Z,45.41
2023-03-05T18:26:40.552Z,45.45
2023-03-05T18:29:13.770Z,45.72
2023-03-05T18:31:48.298Z,45.90
2023-03-05T18:34:21.720Z,45.78
2023-03-05T18:36:54.794Z,45.95
2023-03-05T18:39:29.745Z,46.18
2023-03-05T18:42:02.996Z,46.34
2023-03-05T18:44:36.128Z,46.41
2023-03-05T18:47:09.405Z,46.41
2023-03-05T18:49:43.164Z,46.65
2023-03-05T18:52:16.121Z,46.94
2023-03-05T18:54:49.202Z,47.14
2023-03-05T18:57:22.181Z,47.22
2023-03-05T18:59:56.124Z,47.34
2023-03-05T19:02:30.790Z,47.33
2023-03-05T19:05:06.014Z,47.46
2023-03-05T19:07:39.610Z,47.62
2023-03-05T19:10:14.880Z,47.82
2023-03-05T19:13:29.293Z,47.85
2023-03-05T19:16:23.545Z,48.03
2023-03-05T19:19:24.856Z,47.99
2023-03-05T19:22:00.184Z,48.25
2023-03-05T19:24:35.320Z,48.34
2023-03-05T19:27:12.370Z,48.67
2023-03-05T19:29:46.228Z,48.75
2023-03-05T19:32:24.503Z,48.66
2023-03-05T19:35:01.089Z,48.32
2023-03-05T19:37:35.220Z,48.36
2023-03-05T19:40:08.899Z,48.34
2023-03-05T19:42:41.930Z,48.22
2023-03-05T19:45:16.374Z,48.49
2023-03-05T19:47:49.596Z,48.51
2023-03-05T19:50:22.699Z,48.58
2023-03-05T19:52:56.381Z,48.83
2023-03-05T19:55:29.869Z,48.94
2023-03-05T19:58:04.077Z,48.98
2023-03-05T20:00:37.751Z,49.10
2023-03-05T20:03:11.074Z,48.94
2023-03-05T20:05:44.475Z,49.15
2023-03-05T20:08:17.598Z,49.14
2023-03-05T20:10:53.589Z,49.18
2023-03-05T20:13:31.987Z,49.21
2023-03-05T20:16:05.521Z,49.41
2023-03-05T20:18:38.604Z,50.05
2023-03-05T20:21:12.350Z,50.39
2023-03-05T20:23:47.046Z,49.93
2023-03-05T20:26:21.805Z,49.94
2023-03-05T20:28:57.942Z,50.02
2023-03-05T20:31:32.105Z,50.00
2023-03-05T20:34:06.299Z,50.25
2023-03-05T20:36:39.136Z,50.06
2023-03-05T20:39:12.436Z,50.10
2023-03-05T20:41:45.358Z,50.07
2023-03-05T20:44:18.275Z,50.06
2023-03-05T20:47:29.872Z,50.21
2023-03-05T20:50:20.392Z,50.37
2023-03-05T20:52:53.440Z,50.58
2023-03-05T20:55:29.243Z,50.83
2023-03-05T20:58:02.236Z,50.56
2023-03-05T21:00:35.915Z,50.57
2023-03-05T21:03:10.046Z,50.56
2023-03-05T21:05:42.986Z,50.70
2023-03-05T21:08:15.773Z,50.96
2023-03-05T21:10:48.812Z,51.09
2023-03-05T21:13:22.067Z,51.04
2023-03-05T21:15:55.496Z,50.98
2023-03-05T21:18:33.128Z,50.94
2023-03-05T21:21:06.435Z,51.11
2023-03-05T21:23:40.112Z,52.38
2023-03-05T21:26:13.583Z,51.98
2023-03-05T21:28:46.583Z,51.95
2023-03-05T21:31:24.126Z,52.83
2023-03-05T21:33:57.497Z,53.04
2023-03-05T21:36:31.325Z,52.35
2023-03-05T21:39:04.956Z,52.19
2023-03-05T21:41:39.038Z,52.16
2023-03-05T21:44:19.881Z,52.07
2023-03-05T21:46:53.074Z,52.02
2023-03-05T21:49:26.377Z,52.06
2023-03-05T21:52:25.510Z,52.03
2023-03-05T21:54:59.115Z,52.50
2023-03-05T21:57:32.958Z,52.85
2023-03-05T22:00:10.332Z,52.71
2023-03-05T22:02:46.451Z,52.56
2023-03-05T22:05:19.380Z,52.41
2023-03-05T22:07:53.176Z,52.30
2023-03-05T22:10:26.593Z,52.30
2023-03-05T22:13:12.690Z,52.32
2023-03-05T22:15:56.482Z,52.75
2023-03-05T22:18:34.725Z,52.52
2023-03-05T22:21:18.989Z,52.40
2023-03-05T22:23:54.165Z,52.45
2023-03-05T22:26:28.351Z,52.35
2023-03-05T22:29:01.426Z,52.65
2023-03-05T22:31:35.450Z,52.58
2023-03-05T22:34:08.566Z,52.45
2023-03-05T22:36:41.461Z,52.64
2023-03-05T22:39:14.500Z,52.83
2023-03-05T22:41:47.454Z,52.18
2023-03-05T22:44:20.712Z,52.71
2023-03-05T22:46:53.409Z,52.71
2023-03-05T22:49:26.246Z,52.73
2023-03-05T22:51:59.067Z,52.81
2023-03-05T22:54:31.719Z,52.78
2023-03-05T22:57:04.516Z,52.81
2023-03-05T22:59:37.846Z,52.80
2023-03-05T23:02:10.919Z,52.73
2023-03-05T23:05:01.095Z,52.79
2023-03-05T23:07:37.478Z,53.05
2023-03-05T23:10:18.519Z,53.07
2023-03-05T23:12:53.679Z,52.85
2023-03-05T23:15:28.698Z,52.73
2023-03-05T23:18:02.673Z,52.85
2023-03-05T23:20:39.363Z,52.99
2023-03-05T23:23:14.064Z,52.99
2023-03-05T23:25:48.147Z,53.02
2023-03-05T23:28:22.268Z,52.88
2023-03-05T23:30:55.882Z,52.97
2023-03-05T23:33:29.120Z,53.09
2023-03-05T23:36:02.918Z,53.16
2023-03-05T23:38:37.171Z,53.29
2023-03-05T23:41:13.282Z,53.23
2023-03-05T23:43:45.912Z,53.48
2023-03-05T23:46:19.669Z,53.50
2023-03-05T23:48:52.787Z,53.43
2023-03-05T23:51:25.605Z,53.25
2023-03-05T23:53:58.433Z,53.38
2023-03-05T23:56:32.744Z,53.03
2023-03-05T23:59:05.534Z,53.09
